createdAt,value
2018-06-17T00:01:25.334Z,76.58
2018-06-17T00:03:53.476Z,75.87
2018-06-17T00:06:21.548Z,76.34
2018-06-17T00:08:49.715Z,75.84
2018-06-17T00:11:17.814Z,76.91
2018-06-17T00:13:46.035Z,76.47
2018-06-17T00:16:14.539Z,77.59
2018-06-17T00:18:42.752Z,76.58
2018-06-17T00:21:10.973Z,77.60
2018-06-17T00:23:39.161Z,78.28
2018-06-17T00:26:07.316Z,77.71
2018-06-17T00:28:35.508Z,77.23
2018-06-17T00:31:03.683Z,77.93
2018-06-17T00:33:31.793Z,77.39
2018-06-17T00:35:59.954Z,79.03
2018-06-17T00:38:28.087Z,78.17
2018-06-17T00:40:56.217Z,79.29
2018-06-17T00:43:24.389Z,78.29
2018-06-17T00:45:52.570Z,78.22
2018-06-17T00:48:20.674Z,78.71
2018-06-17T00:50:48.760Z,78.04
2018-06-17T00:53:16.879Z,77.99
2018-06-17T00:55:45.482Z,79.05
2018-06-17T00:58:13.571Z,77.61
2018-06-17T01:00:41.785Z,78.30
2018-06-17T01:03:09.886Z,79.00
2018-06-17T01:05:38.016Z,79.14
2018-06-17T01:08:06.305Z,80.61
2018-06-17T01:10:34.430Z,80.69
2018-06-17T01:13:02.543Z,80.09
2018-06-17T01:15:30.908Z,79.87
2018-06-17T01:17:59.598Z,81.17
2018-06-17T01:20:27.779Z,81.28
2018-06-17T01:22:56.027Z,81.13
2018-06-17T01:25:24.144Z,80.38
2018-06-17T01:27:52.287Z,80.77
2018-06-17T01:30:20.354Z,82.49
2018-06-17T01:32:49.120Z,82.45
2018-06-17T01:35:17.219Z,82.98
2018-06-17T01:37:45.377Z,82.85
2018-06-17T01:40:13.623Z,83.27
2018-06-17T01:42:41.811Z,82.18
2018-06-17T01:45:09.890Z,83.02
2018-06-17T01:47:37.981Z,82.43
2018-06-17T01:50:06.153Z,82.41
2018-06-17T01:52:34.419Z,84.17
2018-06-17T01:55:02.599Z,84.01
2018-06-17T01:57:30.775Z,84.73
2018-06-17T01:59:58.889Z,84.56
2018-06-17T02:02:27.027Z,84.44
2018-06-17T02:05:00.826Z,84.67
2018-06-17T02:07:34.551Z,84.74
2018-06-17T02:10:08.239Z,84.73
2018-06-17T02:12:36.395Z,86.01
2018-06-17T02:15:04.646Z,85.86
2018-06-17T02:17:32.809Z,84.74
2018-06-17T02:20:00.976Z,83.23
2018-06-17T02:22:29.000Z,82.66
2018-06-17T02:24:57.194Z,82.58
2018-06-17T02:27:25.344Z,80.28
2018-06-17T02:29:54.028Z,78.42
2018-06-17T02:32:22.129Z,75.79
2018-06-17T02:34:50.273Z,76.12
2018-06-17T02:37:18.552Z,73.12
2018-06-17T02:39:46.722Z,72.37
2018-06-17T02:42:14.858Z,71.66
2018-06-17T02:44:42.971Z,70.74
2018-06-17T02:47:16.745Z,70.95
2018-06-17T02:49:47.915Z,70.30
2018-06-17T02:52:21.591Z,71.26
2018-06-17T02:54:49.696Z,70.41
2018-06-17T02:57:18.951Z,70.70
2018-06-17T02:59:47.353Z,70.53
2018-06-17T03:02:15.804Z,71.04
2018-06-17T03:04:44.016Z,71.89
2018-06-17T03:07:12.173Z,70.72
2018-06-17T03:09:40.531Z,70.88
2018-06-17T03:12:08.793Z,71.72
2018-06-17T03:14:40.883Z,71.91
2018-06-17T03:17:09.076Z,71.25
2018-06-17T03:19:37.203Z,71.50
2018-06-17T03:22:05.569Z,72.67
2018-06-17T03:24:39.448Z,71.86
2018-06-17T03:27:13.305Z,71.98
2018-06-17T03:29:47.128Z,72.69
2018-06-17T03:32:20.893Z,74.32
2018-06-17T03:34:54.722Z,74.59
2018-06-17T03:37:22.919Z,74.52
2018-06-17T03:39:51.093Z,73.67
2018-06-17T03:42:19.241Z,73.49
2018-06-17T03:44:47.338Z,73.53
2018-06-17T03:47:15.483Z,73.97
2018-06-17T03:49:43.590Z,74.83
2018-06-17T03:52:11.689Z,75.45
2018-06-17T03:54:39.834Z,75.19
2018-06-17T03:57:07.988Z,76.04
2018-06-17T03:59:36.106Z,77.19
2018-06-17T04:02:04.297Z,76.84
2018-06-17T04:04:38.255Z,75.99
2018-06-17T04:07:06.500Z,76.21
2018-06-17T04:09:34.615Z,75.84
2018-06-17T04:12:03.169Z,75.83
2018-06-17T04:14:31.328Z,75.81
2018-06-17T04:17:05.005Z,76.33
2018-06-17T04:19:33.113Z,76.80
2018-06-17T04:22:01.294Z,77.00
2018-06-17T04:24:29.378Z,76.50
2018-06-17T04:26:57.520Z,76.76
2018-06-17T04:29:25.671Z,75.96
2018-06-17T04:31:53.806Z,76.55
2018-06-17T04:34:21.965Z,77.05
2018-06-17T04:36:50.014Z,77.69
2018-06-17T04:39:18.164Z,77.11
2018-06-17T04:41:46.251Z,75.60
2018-06-17T04:44:14.346Z,76.02
2018-06-17T04:46:42.564Z,76.47
2018-06-17T04:49:10.845Z,75.56
2018-06-17T04:51:38.994Z,76.17
2018-06-17T04:54:07.449Z,76.62
2018-06-17T04:56:35.514Z,76.32
2018-06-17T04:59:03.682Z,75.90
2018-06-17T05:01:31.883Z,75.26
2018-06-17T05:04:00.033Z,74.68
2018-06-17T05:06:28.226Z,75.11
2018-06-17T05:08:56.375Z,76.42
2018-06-17T05:11:24.457Z,75.18
2018-06-17T05:13:52.668Z,75.99
2018-06-17T05:16:20.845Z,75.04
2018-06-17T05:18:48.965Z,75.19
2018-06-17T05:21:17.100Z,74.06
2018-06-17T05:23:45.296Z,73.42
2018-06-17T05:26:13.518Z,74.47
2018-06-17T05:28:41.741Z,73.80
2018-06-17T05:31:10.445Z,73.92
2018-06-17T05:33:38.614Z,74.06
2018-06-17T05:36:06.743Z,71.17
2018-06-17T05:38:34.954Z,71.24
2018-06-17T05:41:03.100Z,71.84
2018-06-17T05:43:31.198Z,71.80
2018-06-17T05:45:59.395Z,70.36
2018-06-17T05:48:27.625Z,65.37
2018-06-17T05:50:56.010Z,64.36
2018-06-17T05:53:24.074Z,62.64
2018-06-17T05:55:52.151Z,61.22
2018-06-17T05:58:20.266Z,55.80
2018-06-17T06:00:48.399Z,61.79
2018-06-17T06:03:16.547Z,63.19
2018-06-17T06:05:44.669Z,59.58
2018-06-17T06:08:13.142Z,60.25
2018-06-17T06:10:41.517Z,61.10
2018-06-17T06:13:09.898Z,57.57
2018-06-17T06:15:38.050Z,60.53
2018-06-17T06:18:06.253Z,61.70
2018-06-17T06:20:34.730Z,61.78
2018-06-17T06:23:02.864Z,62.75
2018-06-17T06:25:30.945Z,63.41
2018-06-17T06:27:59.044Z,61.55
2018-06-17T06:30:27.196Z,55.68
2018-06-17T06:32:55.335Z,60.87
2018-06-17T06:35:23.423Z,60.76
2018-06-17T06:37:51.702Z,60.71
2018-06-17T06:40:19.868Z,59.42
2018-06-17T06:42:48.045Z,55.90
2018-06-17T06:45:16.729Z,54.11
2018-06-17T06:47:44.819Z,51.54
2018-06-17T06:50:13.106Z,50.74
2018-06-17T06:52:41.373Z,46.57
2018-06-17T06:55:09.570Z,53.51
2018-06-17T06:57:37.671Z,43.54
2018-06-17T07:00:05.945Z,47.11
2018-06-17T07:02:51.293Z,49.34
2018-06-17T07:05:36.682Z,48.19
2018-06-17T07:08:21.754Z,53.86
2018-06-17T07:10:49.937Z,56.20
2018-06-17T07:13:18.769Z,59.27
2018-06-17T07:16:04.047Z,57.99
2018-06-17T07:18:34.695Z,55.19
2018-06-17T07:21:03.142Z,56.18
2018-06-17T07:23:31.435Z,55.39
2018-06-17T07:26:45.875Z,55.01
2018-06-17T07:29:33.399Z,57.63
2018-06-17T07:32:01.567Z,56.50
2018-06-17T07:34:29.703Z,55.99
2018-06-17T07:36:57.889Z,55.73
2018-06-17T07:41:36.925Z,57.43
2018-06-17T07:44:05.459Z,56.54
2018-06-17T07:46:33.690Z,56.63
2018-06-17T07:49:45.412Z,55.62
2018-06-17T07:52:31.994Z,56.22
2018-06-17T07:55:00.177Z,55.77
2018-06-17T07:57:30.512Z,57.44
2018-06-17T07:59:58.710Z,57.00
2018-06-17T08:02:26.875Z,55.67
2018-06-17T08:04:55.176Z,56.74
2018-06-17T08:07:23.723Z,56.75
2018-06-17T08:09:52.072Z,53.84
2018-06-17T08:12:20.367Z,52.50
2018-06-17T08:14:48.664Z,53.54
2018-06-17T08:17:17.286Z,53.14
2018-06-17T08:19:45.829Z,53.73
2018-06-17T08:22:14.127Z,53.25
2018-06-17T08:24:42.404Z,52.06
2018-06-17T08:27:10.742Z,50.46
2018-06-17T08:29:38.904Z,48.33
2018-06-17T08:32:07.204Z,49.06
2018-06-17T08:34:35.480Z,50.85
2018-06-17T08:37:06.914Z,49.63
2018-06-17T08:39:35.195Z,48.81
2018-06-17T08:42:03.935Z,50.36
2018-06-17T08:44:32.247Z,52.09
2018-06-17T08:47:00.525Z,47.35
2018-06-17T08:49:28.912Z,46.99
2018-06-17T08:51:57.169Z,45.34
2018-06-17T08:54:25.454Z,46.18
2018-06-17T08:56:54.131Z,47.54
2018-06-17T08:59:22.829Z,49.35
2018-06-17T09:01:51.306Z,45.85
2018-06-17T09:04:19.640Z,46.95
2018-06-17T09:06:47.775Z,47.92
2018-06-17T09:09:16.020Z,48.15
2018-06-17T09:11:44.249Z,49.96
2018-06-17T09:14:12.540Z,48.03
2018-06-17T09:16:40.962Z,45.77
2018-06-17T09:19:12.172Z,44.61
2018-06-17T09:21:40.656Z,45.23
2018-06-17T09:24:09.382Z,46.50
2018-06-17T09:26:38.046Z,45.78
2018-06-17T09:29:06.384Z,45.77
2018-06-17T09:31:34.623Z,44.78
2018-06-17T09:34:02.963Z,45.96
2018-06-17T09:36:31.412Z,46.21
2018-06-17T09:38:59.730Z,47.38
2018-06-17T09:41:29.347Z,46.22
2018-06-17T09:43:57.834Z,44.90
2018-06-17T09:46:26.916Z,44.81
2018-06-17T09:48:56.103Z,44.36
2018-06-17T09:51:24.951Z,45.54
2018-06-17T09:53:53.244Z,44.80
2018-06-17T09:56:21.574Z,47.56
2018-06-17T09:58:49.978Z,44.02
2018-06-17T10:01:18.437Z,45.17
2018-06-17T10:03:46.926Z,47.81
2018-06-17T10:06:16.991Z,46.23
2018-06-17T10:08:45.532Z,47.96
2018-06-17T10:11:14.085Z,47.04
2018-06-17T10:13:44.155Z,45.51
2018-06-17T10:16:13.449Z,48.99
2018-06-17T10:18:42.406Z,48.80
2018-06-17T10:21:10.985Z,47.40
2018-06-17T10:23:39.275Z,47.69
2018-06-17T10:26:07.777Z,47.81
2018-06-17T10:28:36.236Z,44.83
2018-06-17T10:31:05.609Z,42.71
2018-06-17T10:33:35.618Z,45.95
2018-06-17T10:36:03.974Z,43.11
2018-06-17T10:38:32.239Z,42.98
2018-06-17T10:41:01.974Z,41.26
2018-06-17T10:43:31.790Z,42.14
2018-06-17T10:46:00.087Z,44.36
2018-06-17T10:48:28.436Z,45.44
2018-06-17T10:50:57.007Z,46.64
2018-06-17T10:53:25.515Z,45.30
2018-06-17T10:55:54.005Z,44.91
2018-06-17T10:58:22.313Z,44.47
2018-06-17T11:00:50.726Z,43.22
2018-06-17T11:03:19.056Z,47.08
2018-06-17T11:05:47.407Z,45.94
2018-06-17T11:08:15.691Z,45.13
2018-06-17T11:10:44.098Z,43.79
2018-06-17T11:13:12.485Z,44.61
2018-06-17T11:15:40.886Z,46.37
2018-06-17T11:18:09.250Z,45.28
2018-06-17T11:20:40.619Z,44.66
2018-06-17T11:23:09.113Z,46.55
2018-06-17T11:25:37.476Z,47.45
2018-06-17T11:28:05.919Z,46.03
2018-06-17T11:30:34.505Z,48.81
2018-06-17T11:33:03.405Z,48.68
2018-06-17T11:35:31.820Z,45.78
2018-06-17T11:38:00.165Z,47.46
2018-06-17T11:40:28.620Z,45.13
2018-06-17T11:42:56.923Z,43.67
2018-06-17T11:45:25.155Z,44.71
2018-06-17T11:47:53.490Z,44.06
2018-06-17T11:50:21.926Z,43.58
2018-06-17T11:52:50.263Z,43.35
2018-06-17T11:55:18.608Z,47.13
2018-06-17T11:57:46.987Z,47.37
2018-06-17T12:00:15.353Z,49.92
2018-06-17T12:02:43.996Z,46.90
2018-06-17T12:05:12.501Z,45.18
2018-06-17T12:07:40.820Z,47.17
2018-06-17T12:10:09.300Z,44.99
2018-06-17T12:12:38.387Z,45.30
2018-06-17T12:15:06.716Z,45.69
2018-06-17T12:17:35.261Z,45.20
2018-06-17T12:20:03.670Z,44.13
2018-06-17T12:22:31.981Z,44.30
2018-06-17T12:25:00.604Z,43.90
2018-06-17T12:27:28.964Z,43.18
2018-06-17T12:29:57.224Z,41.92
2018-06-17T12:32:25.997Z,42.85
2018-06-17T12:34:54.437Z,42.86
2018-06-17T12:37:22.828Z,43.17
2018-06-17T12:39:51.366Z,41.04
2018-06-17T12:42:19.865Z,42.21
2018-06-17T12:44:48.419Z,42.27
2018-06-17T12:47:16.703Z,43.33
2018-06-17T12:49:45.090Z,43.38
2018-06-17T12:52:13.407Z,43.73
2018-06-17T12:54:41.887Z,43.01
2018-06-17T12:57:10.191Z,43.00
2018-06-17T12:59:39.032Z,42.66
2018-06-17T13:02:07.258Z,42.96
2018-06-17T13:04:35.506Z,42.65
2018-06-17T13:07:03.837Z,43.64
2018-06-17T13:09:32.152Z,42.57
2018-06-17T13:12:00.446Z,43.35
2018-06-17T13:14:28.859Z,42.31
2018-06-17T13:16:57.025Z,43.33
2018-06-17T13:19:25.262Z,46.23
2018-06-17T13:21:53.706Z,46.18
2018-06-17T13:24:22.217Z,45.85
2018-06-17T13:26:50.618Z,44.83
2018-06-17T13:29:18.828Z,43.00
2018-06-17T13:31:47.150Z,45.56
2018-06-17T13:34:15.556Z,43.61
2018-06-17T13:36:44.045Z,43.64
2018-06-17T13:39:12.320Z,47.61
2018-06-17T13:41:40.964Z,45.52
2018-06-17T13:44:09.230Z,46.40
2018-06-17T13:46:37.514Z,48.32
2018-06-17T13:49:05.915Z,47.69
2018-06-17T13:51:34.318Z,45.81
2018-06-17T13:54:02.707Z,46.30
2018-06-17T13:56:31.026Z,48.75
2018-06-17T13:58:59.351Z,46.53
2018-06-17T14:01:27.597Z,46.22
2018-06-17T14:03:55.912Z,45.37
2018-06-17T14:06:24.306Z,47.93
2018-06-17T14:08:52.651Z,45.04
2018-06-17T14:11:20.883Z,46.77
2018-06-17T14:13:49.374Z,45.64
2018-06-17T14:16:17.741Z,44.91
2018-06-17T14:18:46.120Z,46.66
2018-06-17T14:21:14.414Z,48.18
2018-06-17T14:23:42.898Z,45.56
2018-06-17T14:26:11.445Z,46.20
2018-06-17T14:28:39.860Z,50.34
2018-06-17T14:31:08.465Z,47.68
2018-06-17T14:33:36.733Z,47.21
2018-06-17T14:36:05.328Z,47.41
2018-06-17T14:38:33.812Z,46.40
2018-06-17T14:41:07.815Z,47.08
2018-06-17T14:43:41.803Z,46.06
2018-06-17T14:46:15.707Z,46.60
2018-06-17T14:48:50.246Z,48.09
2018-06-17T14:51:24.398Z,47.70
2018-06-17T14:53:52.694Z,48.61
2018-06-17T14:56:21.206Z,49.43
2018-06-17T14:58:50.081Z,51.37
2018-06-17T15:01:18.498Z,51.59
2018-06-17T15:03:46.864Z,50.69
2018-06-17T15:06:15.286Z,49.76
2018-06-17T15:08:44.380Z,48.48
2018-06-17T15:11:13.212Z,48.25
2018-06-17T15:13:41.679Z,51.69
2018-06-17T15:16:10.116Z,52.65
2018-06-17T15:18:38.474Z,51.52
2018-06-17T15:21:06.713Z,50.79
2018-06-17T15:23:35.369Z,49.92
2018-06-17T15:26:03.847Z,49.44
2018-06-17T15:28:32.161Z,49.00
2018-06-17T15:31:06.027Z,48.63
2018-06-17T15:33:39.812Z,49.43
2018-06-17T15:36:13.573Z,48.90
2018-06-17T15:38:47.423Z,46.20
2018-06-17T15:41:21.417Z,46.56
2018-06-17T15:43:49.682Z,46.19
2018-06-17T15:46:17.931Z,45.30
2018-06-17T15:48:46.210Z,45.59
2018-06-17T15:51:14.630Z,47.85
2018-06-17T15:53:44.026Z,45.69
2018-06-17T15:56:12.389Z,46.28
2018-06-17T15:58:40.871Z,47.91
2018-06-17T16:01:09.173Z,49.22
2018-06-17T16:03:37.361Z,49.23
2018-06-17T16:06:06.327Z,47.65
2018-06-17T16:08:34.677Z,49.33
2018-06-17T16:11:03.148Z,46.95
2018-06-17T16:13:36.992Z,46.22
2018-06-17T16:16:11.103Z,47.39
2018-06-17T16:18:44.862Z,48.20
2018-06-17T16:21:13.306Z,50.07
2018-06-17T16:23:41.604Z,47.91
2018-06-17T16:26:09.779Z,49.40
2018-06-17T16:28:38.335Z,48.38
2018-06-17T16:31:06.629Z,48.80
2018-06-17T16:33:34.951Z,49.35
2018-06-17T16:36:03.321Z,50.17
2018-06-17T16:38:31.840Z,50.78
2018-06-17T16:41:00.985Z,50.12
2018-06-17T16:43:29.673Z,49.62
2018-06-17T16:45:57.981Z,51.49
2018-06-17T16:48:26.273Z,50.43
2018-06-17T16:51:00.430Z,50.91
2018-06-17T16:53:34.235Z,48.91
2018-06-17T16:56:09.066Z,50.53
2018-06-17T16:59:41.690Z,48.29
2018-06-17T17:02:10.320Z,48.68
2018-06-17T17:04:38.701Z,49.77
2018-06-17T17:07:07.095Z,49.79
2018-06-17T17:09:35.561Z,50.22
2018-06-17T17:12:05.110Z,50.57
2018-06-17T17:14:33.694Z,51.66
2018-06-17T17:17:02.917Z,50.36
2018-06-17T17:19:31.082Z,49.37
2018-06-17T17:22:00.009Z,50.88
2018-06-17T17:24:28.584Z,50.45
2018-06-17T17:26:57.237Z,50.36
2018-06-17T17:29:25.608Z,49.96
2018-06-17T17:32:00.232Z,48.93
2018-06-17T17:34:34.448Z,49.46
2018-06-17T17:37:08.827Z,51.30
2018-06-17T17:39:43.304Z,50.42
2018-06-17T17:42:12.138Z,50.72
2018-06-17T17:44:46.077Z,50.22
2018-06-17T17:47:19.953Z,50.39
2018-06-17T17:49:48.594Z,50.15
2018-06-17T17:52:17.140Z,51.52
2018-06-17T17:54:45.657Z,51.06
2018-06-17T17:57:14.581Z,51.37
2018-06-17T17:59:43.351Z,50.73
2018-06-17T18:02:12.781Z,51.20
2018-06-17T18:04:41.457Z,52.00
2018-06-17T18:07:10.351Z,50.78
2018-06-17T18:09:38.901Z,51.67
2018-06-17T18:12:08.070Z,52.07
2018-06-17T18:14:36.755Z,50.76
2018-06-17T18:17:05.408Z,51.75
2018-06-17T18:19:33.968Z,50.66
2018-06-17T18:22:02.805Z,51.31
2018-06-17T18:24:31.588Z,51.20
2018-06-17T18:28:04.309Z,52.15
2018-06-17T18:30:38.687Z,51.62
2018-06-17T18:33:13.338Z,51.13
2018-06-17T18:35:47.454Z,52.28
2018-06-17T18:38:16.186Z,53.53
2018-06-17T18:40:44.761Z,52.74
2018-06-17T18:43:13.175Z,53.28
2018-06-17T18:45:41.471Z,52.74
2018-06-17T18:48:09.799Z,53.20
2018-06-17T18:50:38.317Z,53.27
2018-06-17T18:53:06.980Z,53.30
2018-06-17T18:55:35.333Z,52.47
2018-06-17T18:58:03.696Z,52.95
2018-06-17T19:00:32.251Z,52.53
2018-06-17T19:03:00.556Z,52.60
2018-06-17T19:05:29.477Z,52.79
2018-06-17T19:07:57.800Z,53.41
2018-06-17T19:10:31.659Z,52.21
2018-06-17T19:13:11.294Z,52.93
2018-06-17T19:15:46.294Z,53.49
2018-06-17T19:18:15.100Z,53.83
2018-06-17T19:20:43.892Z,54.31
2018-06-17T19:23:12.761Z,55.17
2018-06-17T19:25:41.453Z,54.23
2018-06-17T19:28:09.910Z,54.62
2018-06-17T19:30:38.318Z,54.87
2018-06-17T19:33:15.832Z,54.86
2018-06-17T19:38:18.325Z,56.09
2018-06-17T19:40:47.004Z,56.19
2018-06-17T19:43:15.599Z,55.24
2018-06-17T19:45:43.815Z,57.32
2018-06-17T19:48:12.242Z,58.10
2018-06-17T19:50:46.130Z,56.69
2018-06-17T19:53:20.037Z,57.20
2018-06-17T19:55:54.236Z,56.36
2018-06-17T19:58:28.404Z,56.67
2018-06-17T20:00:59.667Z,57.13
2018-06-17T20:03:28.155Z,56.50
2018-06-17T20:05:59.657Z,56.49
2018-06-17T20:08:28.078Z,57.81
2018-06-17T20:10:56.468Z,57.11
2018-06-17T20:13:24.986Z,56.54
2018-06-17T20:15:53.342Z,56.71
2018-06-17T20:18:21.576Z,57.92
2018-06-17T20:20:50.030Z,57.23
2018-06-17T20:23:18.817Z,58.10
2018-06-17T20:25:47.102Z,58.70
2018-06-17T20:28:15.473Z,59.24
2018-06-17T20:30:43.844Z,60.36
2018-06-17T20:33:19.434Z,58.59
2018-06-17T20:35:53.386Z,58.26
2018-06-17T20:45:35.520Z,61.11
2018-06-17T20:48:03.819Z,61.86
2018-06-17T20:50:32.151Z,61.08
2018-06-17T20:53:00.499Z,64.33
2018-06-17T20:55:28.879Z,66.01
2018-06-17T20:57:57.205Z,66.42
2018-06-17T21:00:25.568Z,68.24
2018-06-17T21:02:53.903Z,67.34
2018-06-17T21:05:22.307Z,68.61
2018-06-17T21:07:50.563Z,68.69
2018-06-17T21:10:19.111Z,68.85
2018-06-17T21:12:47.456Z,68.31
2018-06-17T21:15:16.578Z,68.79
2018-06-17T21:17:45.605Z,69.69
2018-06-17T21:20:19.746Z,69.42
2018-06-17T21:22:53.774Z,70.27
2018-06-17T21:25:27.819Z,69.26
2018-06-17T21:27:57.757Z,67.87
2018-06-17T21:30:26.396Z,68.38
2018-06-17T21:32:54.806Z,69.58
2018-06-17T21:35:23.368Z,69.00
2018-06-17T21:37:51.708Z,68.62
2018-06-17T21:40:19.941Z,67.00
2018-06-17T21:42:48.267Z,68.04
2018-06-17T21:45:16.494Z,67.39
2018-06-17T21:47:44.762Z,65.27
2018-06-17T21:50:13.052Z,65.05
2018-06-17T21:52:41.157Z,64.80
2018-06-17T21:55:09.381Z,65.03
2018-06-17T21:57:37.654Z,64.43
2018-06-17T22:00:07.945Z,62.86
2018-06-17T22:02:41.099Z,63.04
2018-06-17T22:05:09.194Z,64.56
2018-06-17T22:07:42.946Z,63.97
2018-06-17T22:10:16.998Z,64.32
2018-06-17T22:12:51.114Z,64.08
2018-06-17T22:15:24.868Z,63.98
2018-06-17T22:17:54.220Z,65.24
2018-06-17T22:26:44.701Z,64.35
2018-06-17T22:29:13.517Z,63.22
2018-06-17T22:31:41.786Z,63.52
2018-06-17T22:34:11.565Z,65.40
2018-06-17T22:37:00.803Z,68.38
2018-06-17T22:39:39.821Z,67.92
2018-06-17T22:42:24.073Z,67.90
2018-06-17T22:45:14.367Z,67.51
2018-06-17T22:51:12.611Z,69.93
2018-06-17T22:53:59.687Z,69.41
